Time;durP1;ratioP1;P1;durP2;ratioP2;P2;SDS_P1;SDS_P2;PMS_P1;PMS_P2;Temp;Humidity;BMP_temperature;BMP_pressure;BME280_temperature;BME280_humidity;BME280_pressure;Samples;Min_cycle;Max_cycle;Signal;HPM_P1;HPM_P2
2023/09/11 00:01:03;;;;;;;748.97;422.50;;;;;;;;;;5028179;28;20446;-71
2023/09/11 00:03:31;;;;;;;766.85;464.00;;;;;;;;;;5027761;28;20448;-71
2023/09/11 00:06:05;;;;;;;759.30;447.23;;;;;;;;;;5030904;28;20483;-71
2023/09/11 00:08:33;;;;;;;778.83;488.23;;;;;;;;;;5023792;28;20431;-71
2023/09/11 00:11:00;;;;;;;769.58;476.65;;;;;;;;;;5022362;28;20484;-71
2023/09/11 00:13:28;;;;;;;755.75;450.83;;;;;;;;;;5027604;28;20493;-71
2023/09/11 00:15:57;;;;;;;757.22;443.85;;;;;;;;;;5024347;28;20451;-71
2023/09/11 00:18:25;;;;;;;764.60;464.05;;;;;;;;;;5029745;28;20435;-71
2023/09/11 00:20:52;;;;;;;765.33;455.83;;;;;;;;;;5030632;28;20457;-71
2023/09/11 00:23:19;;;;;;;779.40;481.88;;;;;;;;;;5021984;28;20427;-70
2023/09/11 00:25:46;;;;;;;774.15;474.83;;;;;;;;;;5025886;28;20430;-71
2023/09/11 00:28:14;;;;;;;764.67;441.00;;;;;;;;;;5024287;28;20525;-71
2023/09/11 00:30:41;;;;;;;797.17;507.02;;;;;;;;;;5026235;28;20518;-71
2023/09/11 00:33:11;;;;;;;795.40;491.80;;;;;;;;;;5014204;28;21012;-71
2023/09/11 00:35:38;;;;;;;821.55;544.95;;;;;;;;;;5024117;28;20461;-71
2023/09/11 00:38:19;;;;;;;823.23;549.97;;;;;;;;;;5025099;28;20427;-71
2023/09/11 00:40:46;;;;;;;817.75;580.83;;;;;;;;;;5017567;28;20459;-71
2023/09/11 00:43:14;;;;;;;834.60;591.42;;;;;;;;;;5025674;28;20441;-71
2023/09/11 00:45:41;;;;;;;751.83;574.72;;;;;;;;;;5021951;28;20434;-71
2023/09/11 00:48:09;;;;;;;821.38;582.67;;;;;;;;;;5025671;28;20952;-71
2023/09/11 00:50:36;;;;;;;827.03;568.90;;;;;;;;;;5021994;28;20489;-71
2023/09/11 00:53:05;;;;;;;805.03;571.15;;;;;;;;;;5024542;28;20526;-71
2023/09/11 00:55:32;;;;;;;822.58;551.78;;;;;;;;;;5018513;28;20463;-71
2023/09/11 00:57:59;;;;;;;824.05;563.72;;;;;;;;;;5021580;28;20521;-71
2023/09/11 01:00:26;;;;;;;831.93;560.83;;;;;;;;;;5040284;28;20443;-71
2023/09/11 01:02:53;;;;;;;832.70;567.55;;;;;;;;;;5028649;28;20436;-70
2023/09/11 01:05:22;;;;;;;835.67;552.97;;;;;;;;;;5024853;28;20504;-71
2023/09/11 01:07:49;;;;;;;829.78;528.45;;;;;;;;;;5031227;28;20430;-70
2023/09/11 01:10:17;;;;;;;821.50;540.97;;;;;;;;;;5027533;28;20469;-70
2023/09/11 01:12:47;;;;;;;831.30;544.95;;;;;;;;;;5028535;28;20485;-71
2023/09/11 01:15:14;;;;;;;673.83;544.65;;;;;;;;;;5027821;28;21056;-71
2023/09/11 01:17:41;;;;;;;803.08;525.33;;;;;;;;;;5032697;28;20422;-71
2023/09/11 01:20:24;;;;;;;794.50;512.90;;;;;;;;;;5033676;28;20454;-71
2023/09/11 01:23:17;;;;;;;780.35;504.17;;;;;;;;;;5026410;28;20431;-70
2023/09/11 01:25:53;;;;;;;747.15;527.53;;;;;;;;;;5025110;28;20861;-70
2023/09/11 01:28:20;;;;;;;778.80;506.30;;;;;;;;;;5029790;28;20602;-70
2023/09/11 01:30:47;;;;;;;763.53;493.73;;;;;;;;;;5027764;28;20946;-70
2023/09/11 01:33:15;;;;;;;750.78;481.55;;;;;;;;;;5027594;28;20534;-71
2023/09/11 01:35:42;;;;;;;751.45;507.58;;;;;;;;;;5031570;28;20431;-70
2023/09/11 01:38:12;;;;;;;741.67;484.37;;;;;;;;;;5030125;28;20457;-71
2023/09/11 01:40:52;;;;;;;695.22;508.88;;;;;;;;;;5025227;28;20438;-71
2023/09/11 01:43:20;;;;;;;766.47;515.33;;;;;;;;;;5038358;28;20452;-71
2023/09/11 01:45:48;;;;;;;713.28;527.95;;;;;;;;;;5044190;28;20437;-71
2023/09/11 01:48:16;;;;;;;568.42;513.25;;;;;;;;;;5061094;28;20470;-71
2023/09/11 01:50:43;;;;;;;713.33;541.17;;;;;;;;;;5025892;28;20439;-71
2023/09/11 01:53:11;;;;;;;657.08;539.63;;;;;;;;;;5025565;28;20872;-71
2023/09/11 01:55:39;;;;;;;685.92;542.15;;;;;;;;;;5029519;28;20521;-71
2023/09/11 01:58:06;;;;;;;633.17;522.77;;;;;;;;;;5031778;28;20585;-71
2023/09/11 02:00:33;;;;;;;665.20;527.80;;;;;;;;;;5031035;28;20430;-71
2023/09/11 02:03:01;;;;;;;781.72;530.58;;;;;;;;;;5063944;28;20514;-71
2023/09/11 02:05:29;;;;;;;773.60;494.23;;;;;;;;;;5028708;28;20510;-71
2023/09/11 02:07:57;;;;;;;768.25;477.73;;;;;;;;;;5028871;28;20588;-71
2023/09/11 02:10:24;;;;;;;770.17;479.55;;;;;;;;;;5029066;28;20931;-71
2023/09/11 02:12:51;;;;;;;772.17;485.50;;;;;;;;;;5032105;28;20429;-71
2023/09/11 02:15:18;;;;;;;780.08;498.40;;;;;;;;;;5025039;28;20470;-71
2023/09/11 02:17:46;;;;;;;776.05;500.85;;;;;;;;;;5026643;28;20431;-71
2023/09/11 02:20:13;;;;;;;772.17;510.73;;;;;;;;;;5026459;28;20442;-71
2023/09/11 02:22:40;;;;;;;767.40;485.35;;;;;;;;;;5060825;28;20528;-71
2023/09/11 02:25:08;;;;;;;770.45;486.13;;;;;;;;;;5026495;28;20908;-71
2023/09/11 02:27:35;;;;;;;759.78;452.90;;;;;;;;;;5028254;28;20431;-71
2023/09/11 02:30:02;;;;;;;770.35;477.73;;;;;;;;;;5026679;28;20514;-72
2023/09/11 02:32:30;;;;;;;779.78;485.63;;;;;;;;;;5029647;28;20866;-71
2023/09/11 02:34:57;;;;;;;772.80;467.77;;;;;;;;;;5030534;28;20435;-71
2023/09/11 02:37:24;;;;;;;779.40;495.05;;;;;;;;;;5027690;28;20495;-71
2023/09/11 02:39:51;;;;;;;779.67;515.85;;;;;;;;;;5023740;28;20495;-71
2023/09/11 02:42:18;;;;;;;777.60;520.60;;;;;;;;;;5025116;28;20446;-71
2023/09/11 02:44:45;;;;;;;781.83;504.65;;;;;;;;;;5020367;28;20466;-71
2023/09/11 02:47:15;;;;;;;757.83;471.70;;;;;;;;;;5031849;28;20427;-70
2023/09/11 02:49:42;;;;;;;732.45;453.38;;;;;;;;;;5035478;28;20777;-71
2023/09/11 02:52:12;;;;;;;729.17;467.00;;;;;;;;;;5030399;28;20682;-71
2023/09/11 02:54:40;;;;;;;735.88;471.65;;;;;;;;;;5029545;28;20437;-71
2023/09/11 02:57:12;;;;;;;685.67;485.88;;;;;;;;;;5024317;28;20448;-71
2023/09/11 02:59:39;;;;;;;446.85;398.42;;;;;;;;;;5022687;28;20489;-71
2023/09/11 03:02:06;;;;;;;595.33;503.83;;;;;;;;;;5028488;28;20430;-71
2023/09/11 03:04:33;;;;;;;769.58;498.35;;;;;;;;;;5030532;28;20588;-71
2023/09/11 03:07:01;;;;;;;756.37;515.17;;;;;;;;;;5025564;28;20488;-71
2023/09/11 03:09:28;;;;;;;711.28;498.77;;;;;;;;;;5030171;28;20970;-71
2023/09/11 03:11:55;;;;;;;672.08;506.55;;;;;;;;;;5028781;28;20439;-71
2023/09/11 03:14:25;;;;;;;636.27;486.23;;;;;;;;;;5024282;28;20442;-71
2023/09/11 03:16:52;;;;;;;155.00;139.35;;;;;;;;;;5026909;28;20485;-71
2023/09/11 03:19:22;;;;;;;62.70;57.40;;;;;;;;;;5030627;28;20902;-71
2023/09/11 03:21:49;;;;;;;102.22;95.10;;;;;;;;;;5025986;28;20949;-71
2023/09/11 03:24:16;;;;;;;472.92;427.42;;;;;;;;;;5028050;28;20518;-71
2023/09/11 03:26:43;;;;;;;727.17;483.20;;;;;;;;;;5023853;28;20513;-71
2023/09/11 03:29:10;;;;;;;713.40;480.80;;;;;;;;;;5027193;28;20438;-71
2023/09/11 03:31:38;;;;;;;700.67;400.88;;;;;;;;;;5039034;28;21867;-71
2023/09/11 03:34:05;;;;;;;681.57;379.60;;;;;;;;;;5021844;28;20427;-71
2023/09/11 03:36:32;;;;;;;706.38;384.10;;;;;;;;;;5050698;28;20442;-71
2023/09/11 03:38:59;;;;;;;696.85;386.63;;;;;;;;;;5021964;28;20797;-71
2023/09/11 03:41:26;;;;;;;707.88;415.33;;;;;;;;;;5024782;28;20529;-70
2023/09/11 03:43:54;;;;;;;723.17;453.38;;;;;;;;;;5023662;28;20443;-71
2023/09/11 03:46:21;;;;;;;716.80;424.60;;;;;;;;;;5027174;28;20434;-71
2023/09/11 03:48:51;;;;;;;700.33;387.60;;;;;;;;;;5026894;28;20437;-71
2023/09/11 03:51:21;;;;;;;687.35;364.52;;;;;;;;;;5026024;28;20427;-71
2023/09/11 03:53:50;;;;;;;706.05;397.60;;;;;;;;;;5035722;28;20431;-71
2023/09/11 03:56:20;;;;;;;692.13;373.15;;;;;;;;;;5026521;28;20437;-71
2023/09/11 03:58:54;;;;;;;691.28;359.02;;;;;;;;;;5027785;28;20921;-71
2023/09/11 04:01:21;;;;;;;701.10;368.17;;;;;;;;;;5023456;28;20431;-71
2023/09/11 04:03:51;;;;;;;702.47;390.00;;;;;;;;;;5026432;28;20484;-71
2023/09/11 04:06:19;;;;;;;697.55;385.20;;;;;;;;;;5023599;28;20514;-70
2023/09/11 04:08:48;;;;;;;699.70;376.08;;;;;;;;;;5028324;28;20433;-70
2023/09/11 04:11:22;;;;;;;701.63;381.05;;;;;;;;;;5031107;28;20440;-71
2023/09/11 04:13:50;;;;;;;704.50;388.42;;;;;;;;;;5031151;28;20422;-70
2023/09/11 04:16:21;;;;;;;705.22;382.77;;;;;;;;;;5028634;28;21463;-70
2023/09/11 04:18:48;;;;;;;692.75;353.88;;;;;;;;;;5026784;28;20496;-70
2023/09/11 04:21:16;;;;;;;689.03;345.13;;;;;;;;;;5024276;28;20435;-71
2023/09/11 04:23:43;;;;;;;693.45;381.95;;;;;;;;;;5025398;28;20552;-71
2023/09/11 04:26:10;;;;;;;689.20;380.70;;;;;;;;;;5024415;28;21085;-70
2023/09/11 04:28:37;;;;;;;687.38;363.15;;;;;;;;;;5026270;28;20469;-70
2023/09/11 04:31:05;;;;;;;681.25;349.33;;;;;;;;;;5028732;28;20923;-71
2023/09/11 04:33:32;;;;;;;708.70;389.02;;;;;;;;;;5027962;28;20804;-71
2023/09/11 04:36:00;;;;;;;716.72;404.33;;;;;;;;;;5027668;28;20423;-70
2023/09/11 04:38:27;;;;;;;713.88;402.08;;;;;;;;;;5021430;28;20905;-70
2023/09/11 04:40:56;;;;;;;698.45;385.60;;;;;;;;;;5018511;28;20438;-70
2023/09/11 04:43:24;;;;;;;701.15;377.90;;;;;;;;;;5044526;28;20451;-70
2023/09/11 04:45:51;;;;;;;684.63;347.83;;;;;;;;;;5021892;28;20466;-70
2023/09/11 04:48:18;;;;;;;708.22;369.70;;;;;;;;;;5020404;28;20474;-70
2023/09/11 04:50:46;;;;;;;699.53;370.45;;;;;;;;;;5015170;28;20945;-71
2023/09/11 04:53:13;;;;;;;691.53;383.83;;;;;;;;;;5021007;28;20434;-70
2023/09/11 04:55:40;;;;;;;694.03;383.80;;;;;;;;;;5028245;28;20428;-71
2023/09/11 04:58:07;;;;;;;697.00;393.83;;;;;;;;;;5021780;28;20433;-70
2023/09/11 05:00:34;;;;;;;688.65;382.30;;;;;;;;;;5026191;28;20900;-70
2023/09/11 05:03:01;;;;;;;696.33;405.83;;;;;;;;;;5027176;28;20466;-71
2023/09/11 05:05:40;;;;;;;684.35;385.98;;;;;;;;;;5038844;28;20989;-70
2023/09/11 05:08:07;;;;;;;668.55;371.77;;;;;;;;;;5020515;28;20514;-70
2023/09/11 05:10:36;;;;;;;676.33;390.35;;;;;;;;;;5023234;28;20509;-70
2023/09/11 05:13:03;;;;;;;676.60;374.90;;;;;;;;;;5024231;28;20527;-70
2023/09/11 05:15:30;;;;;;;690.65;394.92;;;;;;;;;;5031468;28;20503;-71
2023/09/11 05:17:57;;;;;;;688.17;384.58;;;;;;;;;;5030525;28;20429;-71
2023/09/11 05:20:25;;;;;;;688.73;384.70;;;;;;;;;;5030600;28;20522;-71
2023/09/11 05:22:52;;;;;;;679.72;381.73;;;;;;;;;;5027075;28;20500;-71
2023/09/11 05:25:20;;;;;;;674.15;382.75;;;;;;;;;;5016574;28;20440;-71
2023/09/11 05:27:52;;;;;;;665.42;374.52;;;;;;;;;;5030576;28;20429;-70
2023/09/11 05:30:25;;;;;;;663.63;376.75;;;;;;;;;;5021075;28;20545;-70
2023/09/11 05:32:53;;;;;;;660.72;376.75;;;;;;;;;;5023394;28;20446;-70
2023/09/11 05:35:21;;;;;;;661.60;380.08;;;;;;;;;;5018323;28;20498;-70
2023/09/11 05:37:48;;;;;;;664.72;379.83;;;;;;;;;;5026123;28;20439;-70
2023/09/11 05:40:15;;;;;;;673.55;397.77;;;;;;;;;;5017755;28;20439;-70
2023/09/11 05:42:43;;;;;;;679.83;399.35;;;;;;;;;;5020392;28;20438;-70
2023/09/11 05:45:10;;;;;;;671.65;398.52;;;;;;;;;;5022871;28;20917;-70
2023/09/11 05:47:39;;;;;;;663.78;386.27;;;;;;;;;;5019491;28;20504;-70
2023/09/11 05:50:07;;;;;;;648.33;375.97;;;;;;;;;;5023746;28;20435;-70
2023/09/11 05:52:37;;;;;;;643.35;372.75;;;;;;;;;;5020594;28;20436;-70
2023/09/11 05:55:04;;;;;;;642.23;375.83;;;;;;;;;;5024625;28;20435;-70
2023/09/11 05:57:31;;;;;;;641.90;373.08;;;;;;;;;;5025854;28;20446;-70
2023/09/11 06:00:05;;;;;;;635.80;371.42;;;;;;;;;;5026168;28;20437;-71
2023/09/11 06:02:36;;;;;;;612.40;327.73;;;;;;;;;;5026254;28;20498;-70
2023/09/11 06:05:05;;;;;;;587.40;313.20;;;;;;;;;;5026332;28;20907;-70
2023/09/11 06:07:35;;;;;;;642.90;394.17;;;;;;;;;;5023862;28;20441;-71
2023/09/11 06:10:02;;;;;;;726.47;470.48;;;;;;;;;;5026206;28;20510;-70
2023/09/11 06:12:30;;;;;;;811.65;561.22;;;;;;;;;;5027806;28;21613;-71
2023/09/11 06:14:57;;;;;;;843.45;577.92;;;;;;;;;;5025831;28;20463;-71
2023/09/11 06:17:24;;;;;;;868.00;604.90;;;;;;;;;;5041247;28;20426;-71
2023/09/11 06:20:10;;;;;;;903.20;655.50;;;;;;;;;;5024561;28;20919;-71
2023/09/11 06:22:38;;;;;;;935.20;711.97;;;;;;;;;;5023705;28;20443;-71
2023/09/11 06:25:05;;;;;;;968.42;750.05;;;;;;;;;;5031427;28;20509;-72
2023/09/11 06:27:34;;;;;;;977.10;764.40;;;;;;;;;;5029457;28;20932;-71
2023/09/11 06:30:05;;;;;;;971.40;861.65;;;;;;;;;;5027120;28;20426;-72
2023/09/11 06:32:33;;;;;;;697.05;637.95;;;;;;;;;;5025870;28;20437;-71
2023/09/11 06:35:01;;;;;;;1022.30;862.88;;;;;;;;;;5027562;28;20470;-71
2023/09/11 06:37:28;;;;;;;980.88;785.95;;;;;;;;;;5020525;28;21015;-72
2023/09/11 06:39:55;;;;;;;995.13;809.60;;;;;;;;;;5028326;28;20517;-71
2023/09/11 06:42:23;;;;;;;1010.00;835.03;;;;;;;;;;5022263;28;20438;-71
2023/09/11 06:44:51;;;;;;;1002.60;829.97;;;;;;;;;;5040916;28;20434;-71
2023/09/11 06:47:18;;;;;;;1017.90;909.97;;;;;;;;;;5019299;28;20438;-71
2023/09/11 06:49:45;;;;;;;1036.68;930.97;;;;;;;;;;5022531;28;20500;-71
2023/09/11 06:52:12;;;;;;;154.75;141.60;;;;;;;;;;5026524;28;21166;-71
2023/09/11 06:54:40;;;;;;;13.33;6.47;;;;;;;;;;5024019;28;20454;-71
2023/09/11 06:57:07;;;;;;;11.60;6.65;;;;;;;;;;5029883;28;20433;-71
2023/09/11 06:59:34;;;;;;;11.93;6.03;;;;;;;;;;5029253;28;20437;-72
2023/09/11 07:02:01;;;;;;;8.93;5.70;;;;;;;;;;5029001;28;20948;-71
2023/09/11 07:04:28;;;;;;;611.37;556.27;;;;;;;;;;5036681;28;20512;-71
2023/09/11 07:06:56;;;;;;;1049.10;941.30;;;;;;;;;;5023815;28;20821;-71
2023/09/11 07:09:24;;;;;;;195.80;178.98;;;;;;;;;;5023869;28;20558;-71
2023/09/11 07:11:51;;;;;;;999.90;906.78;;;;;;;;;;5032988;28;20439;-71
2023/09/11 07:14:22;;;;;;;1034.85;922.35;;;;;;;;;;5027061;28;21113;-71
2023/09/11 07:16:49;;;;;;;1026.25;878.38;;;;;;;;;;5028189;28;20476;-72
2023/09/11 07:19:16;;;;;;;968.75;809.35;;;;;;;;;;5023592;28;20434;-72
2023/09/11 07:21:44;;;;;;;7.47;5.97;;;;;;;;;;5033756;28;20431;-71
2023/09/11 07:24:12;;;;;;;986.90;881.83;;;;;;;;;;5027584;28;20782;-71
2023/09/11 07:26:39;;;;;;;8.60;5.90;;;;;;;;;;5013645;28;20954;-72
2023/09/11 07:29:07;;;;;;;14.10;12.65;;;;;;;;;;5027823;28;21030;-71
2023/09/11 07:31:34;;;;;;;9.10;6.60;;;;;;;;;;5030227;28;20486;-71
2023/09/11 07:34:02;;;;;;;9.55;5.93;;;;;;;;;;5028609;28;20429;-72
2023/09/11 07:36:32;;;;;;;9.73;5.80;;;;;;;;;;5026908;28;20527;-72
2023/09/11 07:38:59;;;;;;;9.80;6.60;;;;;;;;;;5020931;28;20450;-72
2023/09/11 07:41:28;;;;;;;148.00;133.77;;;;;;;;;;5023078;28;20440;-71
2023/09/11 07:43:58;;;;;;;85.30;76.05;;;;;;;;;;5042227;28;20530;-71
2023/09/11 07:46:25;;;;;;;564.60;512.67;;;;;;;;;;5033055;28;20435;-71
2023/09/11 07:48:53;;;;;;;9.20;6.00;;;;;;;;;;5025650;28;20435;-71
2023/09/11 07:51:26;;;;;;;8.40;5.90;;;;;;;;;;5021584;28;20505;-71
2023/09/11 07:53:53;;;;;;;8.02;5.60;;;;;;;;;;5037297;28;20426;-71
2023/09/11 07:56:20;;;;;;;55.30;50.30;;;;;;;;;;5038856;28;20422;-71
2023/09/11 07:58:50;;;;;;;10.27;5.75;;;;;;;;;;5022833;28;20436;-71
2023/09/11 08:01:18;;;;;;;41.40;37.03;;;;;;;;;;5024460;28;20443;-71
2023/09/11 08:03:45;;;;;;;10.27;5.20;;;;;;;;;;5024096;28;20517;-72
2023/09/11 08:06:16;;;;;;;12.98;9.25;;;;;;;;;;5026212;28;20726;-71
2023/09/11 08:08:45;;;;;;;352.60;320.10;;;;;;;;;;5025179;28;20516;-64
2023/09/11 08:11:17;;;;;;;897.03;814.50;;;;;;;;;;5021434;28;20460;-71
2023/09/11 08:13:49;;;;;;;122.63;111.87;;;;;;;;;;5025026;28;20431;-72
2023/09/11 08:16:17;;;;;;;22.50;19.48;;;;;;;;;;5027281;28;20905;-72
2023/09/11 08:18:44;;;;;;;214.70;196.27;;;;;;;;;;5023736;28;20430;-74
2023/09/11 08:21:12;;;;;;;119.97;109.32;;;;;;;;;;5023903;28;20488;-73
2023/09/11 08:23:43;;;;;;;106.93;95.97;;;;;;;;;;5031623;28;20442;-74
2023/09/11 08:26:11;;;;;;;878.15;798.15;;;;;;;;;;5028803;28;20435;-73
2023/09/11 08:28:39;;;;;;;1072.75;981.10;;;;;;;;;;5026590;28;20436;-74
2023/09/11 08:31:07;;;;;;;1171.03;999.90;;;;;;;;;;5023259;28;20491;-75
2023/09/11 08:33:34;;;;;;;1165.40;999.90;;;;;;;;;;5024049;28;20429;-73
2023/09/11 08:36:20;;;;;;;1206.10;999.90;;;;;;;;;;5024204;28;20493;-74
2023/09/11 08:38:56;;;;;;;1162.87;999.90;;;;;;;;;;5025677;28;20437;-73
2023/09/11 08:41:24;;;;;;;500.60;458.33;;;;;;;;;;5026398;28;20434;-75
2023/09/11 08:43:53;;;;;;;323.50;295.25;;;;;;;;;;5020479;28;20446;-74
2023/09/11 08:46:21;;;;;;;269.63;247.03;;;;;;;;;;5021188;28;20536;-74
2023/09/11 08:48:54;;;;;;;145.02;132.63;;;;;;;;;;5026500;28;20508;-75
2023/09/11 08:51:54;;;;;;;14.73;6.40;;;;;;;;;;5036658;28;20484;-74
2023/09/11 08:54:24;;;;;;;85.18;75.05;;;;;;;;;;4999481;28;20544;-74
2023/09/11 08:56:53;;;;;;;14.45;7.90;;;;;;;;;;4998261;28;20434;-75
2023/09/11 08:59:24;;;;;;;22.15;19.40;;;;;;;;;;5007013;28;20455;-75
2023/09/11 09:01:52;;;;;;;13.35;7.00;;;;;;;;;;4984797;28;20463;-76
2023/09/11 09:04:20;;;;;;;11.50;6.75;;;;;;;;;;4999672;28;20464;-75
2023/09/11 09:06:50;;;;;;;11.32;6.13;;;;;;;;;;4998325;28;20444;-74
2023/09/11 09:09:22;;;;;;;404.13;369.17;;;;;;;;;;4997837;28;20490;-74
2023/09/11 09:11:49;;;;;;;17.30;12.27;;;;;;;;;;5001588;28;20441;-73
2023/09/11 09:14:20;;;;;;;17.15;11.32;;;;;;;;;;4996772;28;20464;-76
2023/09/11 09:16:48;;;;;;;120.03;108.40;;;;;;;;;;5001795;28;20548;-76
2023/09/11 09:19:15;;;;;;;16.77;11.77;;;;;;;;;;4999293;28;20444;-78
2023/09/11 09:22:01;;;;;;;47.03;43.13;;;;;;;;;;4998328;28;20440;-75
2023/09/11 09:24:28;;;;;;;28.70;25.65;;;;;;;;;;4998258;28;20437;-75
2023/09/11 09:26:57;;;;;;;595.17;541.70;;;;;;;;;;4998960;28;20450;-76
2023/09/11 09:29:24;;;;;;;617.73;564.80;;;;;;;;;;5009042;28;20426;-76
2023/09/11 09:31:52;;;;;;;753.50;686.73;;;;;;;;;;5025521;28;20441;-75
2023/09/11 09:34:19;;;;;;;14.55;7.45;;;;;;;;;;5024335;28;20518;-76
2023/09/11 09:36:49;;;;;;;11.73;6.25;;;;;;;;;;5027565;28;20497;-76
2023/09/11 09:39:17;;;;;;;369.35;334.55;;;;;;;;;;5027698;28;20438;-75
2023/09/11 09:41:57;;;;;;;28.27;25.67;;;;;;;;;;5027036;28;20448;-77
2023/09/11 09:44:28;;;;;;;142.80;130.35;;;;;;;;;;5026719;28;20565;-77
2023/09/11 09:46:55;;;;;;;83.82;74.07;;;;;;;;;;5029990;28;20510;-75
2023/09/11 09:49:23;;;;;;;49.53;44.30;;;;;;;;;;5026645;28;20462;-75
2023/09/11 09:51:52;;;;;;;11.38;6.22;;;;;;;;;;5027984;28;20454;-77
2023/09/11 09:54:25;;;;;;;11.55;6.07;;;;;;;;;;5030208;28;20438;-76
2023/09/11 09:56:55;;;;;;;12.57;6.45;;;;;;;;;;5032217;28;20441;-76
2023/09/11 09:59:25;;;;;;;12.43;5.95;;;;;;;;;;5027966;28;20517;-77
2023/09/11 10:01:52;;;;;;;9.77;4.97;;;;;;;;;;5029900;28;21420;-77
2023/09/11 10:04:21;;;;;;;11.13;5.80;;;;;;;;;;5030874;28;20807;-77
2023/09/11 10:06:56;;;;;;;11.75;5.22;;;;;;;;;;5027237;28;20465;-76
2023/09/11 10:09:23;;;;;;;13.48;5.30;;;;;;;;;;5028621;28;20461;-77
2023/09/11 10:11:52;;;;;;;10.15;5.30;;;;;;;;;;5033256;28;20433;-76
2023/09/11 10:14:22;;;;;;;9.55;5.10;;;;;;;;;;5026754;28;20504;-78
2023/09/11 10:16:49;;;;;;;11.32;6.10;;;;;;;;;;5033506;28;20522;-76
2023/09/11 10:19:17;;;;;;;589.63;539.05;;;;;;;;;;5027762;28;20525;-76
2023/09/11 10:21:45;;;;;;;412.77;376.50;;;;;;;;;;5028619;28;20763;-77
2023/09/11 10:24:12;;;;;;;1292.72;999.90;;;;;;;;;;5024417;28;20437;-76
2023/09/11 10:26:44;;;;;;;1301.70;999.90;;;;;;;;;;5026525;28;20423;-77
2023/09/11 10:29:15;;;;;;;1300.43;999.90;;;;;;;;;;5030203;28;20435;-77
2023/09/11 10:31:52;;;;;;;1266.05;999.90;;;;;;;;;;5028839;28;20535;-76
2023/09/11 10:34:24;;;;;;;68.57;62.97;;;;;;;;;;5033036;28;20448;-77
2023/09/11 10:36:54;;;;;;;1036.93;938.17;;;;;;;;;;5035142;28;20484;-77
2023/09/11 10:39:22;;;;;;;9.90;5.33;;;;;;;;;;5032637;28;20431;-78
2023/09/11 10:41:49;;;;;;;416.90;376.80;;;;;;;;;;5039618;28;20927;-76
2023/09/11 10:44:17;;;;;;;657.85;601.17;;;;;;;;;;5037993;28;20437;-77
2023/09/11 10:46:48;;;;;;;1320.25;999.90;;;;;;;;;;5024127;28;20518;-77
2023/09/11 10:49:19;;;;;;;1134.78;999.90;;;;;;;;;;5037479;28;21147;-77
2023/09/11 10:51:47;;;;;;;1122.68;999.90;;;;;;;;;;5036448;28;20427;-77
2023/09/11 10:54:21;;;;;;;133.13;123.10;;;;;;;;;;5027881;28;20929;-77
2023/09/11 10:56:49;;;;;;;706.30;645.55;;;;;;;;;;5033300;28;20910;-77
2023/09/11 10:59:17;;;;;;;1290.13;999.90;;;;;;;;;;5032908;28;20989;-77
2023/09/11 11:01:45;;;;;;;958.85;876.25;;;;;;;;;;5044848;28;20907;-77
2023/09/11 11:04:14;;;;;;;333.00;304.70;;;;;;;;;;5031604;28;20438;-78
2023/09/11 11:06:53;;;;;;;986.20;902.30;;;;;;;;;;5046791;28;20431;-78
2023/09/11 11:09:24;;;;;;;773.97;705.80;;;;;;;;;;5056186;28;20517;-79
2023/09/11 11:12:04;;;;;;;225.85;204.93;;;;;;;;;;5046749;28;20788;-77
2023/09/11 11:14:31;;;;;;;20.95;18.77;;;;;;;;;;5028896;28;20534;-77
2023/09/11 11:17:10;;;;;;;896.58;815.05;;;;;;;;;;5027946;28;20437;-76
2023/09/11 11:19:42;;;;;;;37.78;34.58;;;;;;;;;;5037727;28;20442;-75
2023/09/11 11:22:28;;;;;;;13.43;6.90;;;;;;;;;;5043888;28;20463;-77
2023/09/11 11:24:55;;;;;;;1347.78;999.90;;;;;;;;;;5043847;28;20539;-78
2023/09/11 11:27:25;;;;;;;24.08;21.23;;;;;;;;;;5052655;28;20438;-79
2023/09/11 11:29:56;;;;;;;10.30;4.70;;;;;;;;;;5028171;28;20512;-78
2023/09/11 11:32:26;;;;;;;7.45;4.75;;;;;;;;;;5030324;28;20894;-78
2023/09/11 11:34:55;;;;;;;30.05;24.50;;;;;;;;;;5028673;28;20435;-79
2023/09/11 11:37:24;;;;;;;7.47;4.43;;;;;;;;;;5027278;28;20514;-77
2023/09/11 11:39:51;;;;;;;11.68;6.65;;;;;;;;;;5026211;28;20430;-78
2023/09/11 11:42:19;;;;;;;12.75;4.80;;;;;;;;;;5030103;28;20439;-80
2023/09/11 11:44:49;;;;;;;85.72;76.43;;;;;;;;;;5027611;28;20431;-78
2023/09/11 11:47:17;;;;;;;370.53;337.13;;;;;;;;;;5028644;28;20825;-77
2023/09/11 11:49:46;;;;;;;924.47;839.33;;;;;;;;;;5026743;28;20455;-79
2023/09/11 11:52:23;;;;;;;1351.40;999.90;;;;;;;;;;5035948;28;20448;-69
2023/09/11 11:54:50;;;;;;;1278.88;999.90;;;;;;;;;;5021837;28;20531;-73
2023/09/11 11:57:20;;;;;;;1238.47;999.90;;;;;;;;;;5024664;28;20477;-72
2023/09/11 11:59:51;;;;;;;1367.67;999.90;;;;;;;;;;5029322;28;20438;-73
2023/09/11 12:02:19;;;;;;;1352.55;999.90;;;;;;;;;;5029677;28;20466;-73
2023/09/11 12:04:47;;;;;;;1374.82;999.90;;;;;;;;;;5031728;28;20435;-73
2023/09/11 12:07:17;;;;;;;1373.18;999.90;;;;;;;;;;5036781;28;20487;-72
2023/09/11 12:09:44;;;;;;;1083.63;986.72;;;;;;;;;;5036066;28;20485;-73
2023/09/11 12:12:14;;;;;;;1359.35;999.90;;;;;;;;;;5046831;28;20433;-73
2023/09/11 12:14:42;;;;;;;1383.07;999.90;;;;;;;;;;5027860;28;20441;-71
2023/09/11 12:17:09;;;;;;;1337.47;999.90;;;;;;;;;;5031488;28;20840;-74
2023/09/11 12:19:40;;;;;;;1363.45;999.90;;;;;;;;;;5025896;28;20446;-73
2023/09/11 12:22:08;;;;;;;1359.82;999.90;;;;;;;;;;5022311;28;20569;-74
2023/09/11 12:24:36;;;;;;;1290.85;999.90;;;;;;;;;;5058128;28;20434;-73
2023/09/11 12:27:04;;;;;;;1268.63;999.90;;;;;;;;;;5026458;28;20437;-72
2023/09/11 12:29:35;;;;;;;1245.93;999.90;;;;;;;;;;5027441;28;20488;-72
2023/09/11 12:32:03;;;;;;;1258.63;999.90;;;;;;;;;;5028691;28;20433;-73
2023/09/11 12:34:43;;;;;;;1303.80;999.90;;;;;;;;;;5029538;28;20430;-74
2023/09/11 12:37:10;;;;;;;1315.25;999.90;;;;;;;;;;5033291;28;20479;-73
2023/09/11 12:39:37;;;;;;;1276.95;999.90;;;;;;;;;;5033184;28;20434;-74
2023/09/11 12:42:08;;;;;;;1247.15;999.90;;;;;;;;;;5028584;28;21152;-75
2023/09/11 12:44:35;;;;;;;1249.30;999.90;;;;;;;;;;5029750;28;20423;-72
2023/09/11 12:47:05;;;;;;;1261.18;999.90;;;;;;;;;;5027292;28;20427;-73
2023/09/11 12:49:32;;;;;;;1235.03;999.90;;;;;;;;;;5033819;28;20479;-72
2023/09/11 12:52:02;;;;;;;1224.85;999.90;;;;;;;;;;5027889;28;20520;-73
2023/09/11 12:54:31;;;;;;;1244.25;999.90;;;;;;;;;;5020975;28;20526;-72
2023/09/11 12:57:02;;;;;;;1265.00;999.90;;;;;;;;;;5033336;28;20986;-73
2023/09/11 12:59:32;;;;;;;1275.82;999.90;;;;;;;;;;5034908;28;20456;-73
2023/09/11 13:01:59;;;;;;;1287.45;999.90;;;;;;;;;;5027061;28;20439;-73
2023/09/11 13:04:27;;;;;;;1318.43;999.90;;;;;;;;;;5034897;28;20427;-73
2023/09/11 13:06:54;;;;;;;1298.18;999.90;;;;;;;;;;5044718;28;20471;-73
2023/09/11 13:09:22;;;;;;;1260.70;999.90;;;;;;;;;;5035653;28;20430;-72
2023/09/11 13:11:49;;;;;;;1209.65;999.90;;;;;;;;;;5025716;28;20431;-72
2023/09/11 13:14:16;;;;;;;1221.68;999.90;;;;;;;;;;5030687;28;20469;-72
2023/09/11 13:16:44;;;;;;;1176.55;999.90;;;;;;;;;;5028002;28;20492;-72
2023/09/11 13:19:12;;;;;;;1151.05;999.90;;;;;;;;;;5026282;28;20441;-73
2023/09/11 13:21:39;;;;;;;1205.32;999.90;;;;;;;;;;5026576;28;20489;-72
2023/09/11 13:24:07;;;;;;;1226.45;999.90;;;;;;;;;;5020991;28;20430;-72
2023/09/11 13:26:34;;;;;;;1196.50;999.90;;;;;;;;;;5024785;28;20490;-72
2023/09/11 13:29:04;;;;;;;1240.43;999.90;;;;;;;;;;5024619;28;20430;-74
2023/09/11 13:31:31;;;;;;;1217.20;999.90;;;;;;;;;;5021613;28;20505;-72
2023/09/11 13:34:01;;;;;;;1263.03;999.90;;;;;;;;;;5026002;28;20439;-73
2023/09/11 13:36:28;;;;;;;1251.10;999.90;;;;;;;;;;5021049;28;20462;-73
2023/09/11 13:39:03;;;;;;;1272.35;999.90;;;;;;;;;;5021972;28;20476;-73
2023/09/11 13:41:31;;;;;;;1236.07;999.90;;;;;;;;;;5019282;28;20874;-73
2023/09/11 13:43:59;;;;;;;1282.68;999.90;;;;;;;;;;5020222;28;20446;-73
2023/09/11 13:46:26;;;;;;;1258.47;999.90;;;;;;;;;;5020909;28;20833;-73
2023/09/11 13:48:55;;;;;;;1010.95;903.10;;;;;;;;;;5019722;28;20433;-72
2023/09/11 13:51:22;;;;;;;1186.55;999.90;;;;;;;;;;5021316;28;20441;-71
2023/09/11 13:53:49;;;;;;;1215.75;999.90;;;;;;;;;;5021966;28;20960;-72
2023/09/11 13:56:17;;;;;;;1239.18;999.90;;;;;;;;;;5032401;28;20446;-74
2023/09/11 13:58:44;;;;;;;706.97;405.10;;;;;;;;;;5022357;28;20430;-72
2023/09/11 14:01:15;;;;;;;620.08;265.08;;;;;;;;;;5019929;28;22065;-73
2023/09/11 14:03:43;;;;;;;1327.80;999.90;;;;;;;;;;5023785;28;20510;-73
2023/09/11 14:06:10;;;;;;;1266.10;999.90;;;;;;;;;;5019044;28;20518;-73